sensor_id;sensor_type;location;lat;lon;timestamp;P1;durP1;ratioP1;P2;durP2;ratioP2
76107;SDS011;64834;52.516;10.528;2024-03-17T00:00:29;3.15;;;0.95;;
76107;SDS011;64834;52.516;10.528;2024-03-17T00:02:55;6.53;;;1.35;;
76107;SDS011;64834;52.516;10.528;2024-03-17T00:05:20;5.47;;;1.13;;
76107;SDS011;64834;52.516;10.528;2024-03-17T00:07:46;4.78;;;1.10;;
76107;SDS011;64834;52.516;10.528;2024-03-17T00:10:11;4.82;;;1.52;;
76107;SDS011;64834;52.516;10.528;2024-03-17T00:12:37;8.77;;;1.80;;
76107;SDS011;64834;52.516;10.528;2024-03-17T00:15:03;7.80;;;1.80;;
76107;SDS011;64834;52.516;10.528;2024-03-17T00:17:29;6.60;;;1.10;;
76107;SDS011;64834;52.516;10.528;2024-03-17T00:19:55;7.40;;;1.27;;
76107;SDS011;64834;52.516;10.528;2024-03-17T00:22:20;3.03;;;1.38;;
76107;SDS011;64834;52.516;10.528;2024-03-17T00:24:46;12.52;;;1.50;;
76107;SDS011;64834;52.516;10.528;2024-03-17T00:27:11;4.85;;;1.40;;
76107;SDS011;64834;52.516;10.528;2024-03-17T00:29:37;7.82;;;1.27;;
76107;SDS011;64834;52.516;10.528;2024-03-17T00:32:03;5.13;;;1.10;;
76107;SDS011;64834;52.516;10.528;2024-03-17T00:34:28;4.40;;;1.05;;
76107;SDS011;64834;52.516;10.528;2024-03-17T00:36:54;6.28;;;1.38;;
76107;SDS011;64834;52.516;10.528;2024-03-17T00:39:19;8.73;;;1.20;;
76107;SDS011;64834;52.516;10.528;2024-03-17T00:41:44;7.68;;;1.20;;
76107;SDS011;64834;52.516;10.528;2024-03-17T00:44:10;5.90;;;1.60;;
76107;SDS011;64834;52.516;10.528;2024-03-17T00:46:35;7.47;;;1.10;;
76107;SDS011;64834;52.516;10.528;2024-03-17T00:49:01;9.00;;;1.23;;
76107;SDS011;64834;52.516;10.528;2024-03-17T00:51:26;4.50;;;1.10;;
76107;SDS011;64834;52.516;10.528;2024-03-17T00:53:52;7.53;;;1.40;;
76107;SDS011;64834;52.516;10.528;2024-03-17T00:56:17;7.32;;;1.10;;
76107;SDS011;64834;52.516;10.528;2024-03-17T00:58:42;6.05;;;1.30;;
76107;SDS011;64834;52.516;10.528;2024-03-17T01:01:10;9.48;;;1.83;;
76107;SDS011;64834;52.516;10.528;2024-03-17T01:03:36;6.63;;;1.33;;
76107;SDS011;64834;52.516;10.528;2024-03-17T01:06:04;3.92;;;1.48;;
76107;SDS011;64834;52.516;10.528;2024-03-17T01:08:30;6.95;;;1.95;;
76107;SDS011;64834;52.516;10.528;2024-03-17T01:10:55;5.00;;;1.42;;
76107;SDS011;64834;52.516;10.528;2024-03-17T01:13:21;4.32;;;1.45;;
76107;SDS011;64834;52.516;10.528;2024-03-17T01:15:50;5.65;;;1.42;;
76107;SDS011;64834;52.516;10.528;2024-03-17T01:18:17;7.43;;;1.40;;
76107;SDS011;64834;52.516;10.528;2024-03-17T01:20:43;7.53;;;1.58;;
76107;SDS011;64834;52.516;10.528;2024-03-17T01:23:09;6.90;;;1.73;;
76107;SDS011;64834;52.516;10.528;2024-03-17T01:25:34;5.05;;;1.50;;
76107;SDS011;64834;52.516;10.528;2024-03-17T01:28:03;4.13;;;1.13;;
76107;SDS011;64834;52.516;10.528;2024-03-17T01:30:29;7.55;;;1.52;;
76107;SDS011;64834;52.516;10.528;2024-03-17T01:32:55;4.13;;;1.13;;
76107;SDS011;64834;52.516;10.528;2024-03-17T01:35:21;7.57;;;1.63;;
76107;SDS011;64834;52.516;10.528;2024-03-17T01:37:48;6.25;;;1.75;;
76107;SDS011;64834;52.516;10.528;2024-03-17T01:40:14;3.38;;;1.30;;
76107;SDS011;64834;52.516;10.528;2024-03-17T01:42:39;5.82;;;1.70;;
76107;SDS011;64834;52.516;10.528;2024-03-17T01:45:18;10.15;;;1.50;;
76107;SDS011;64834;52.516;10.528;2024-03-17T01:47:50;8.15;;;1.60;;
76107;SDS011;64834;52.516;10.528;2024-03-17T01:50:16;5.15;;;1.58;;
76107;SDS011;64834;52.516;10.528;2024-03-17T01:52:44;3.67;;;1.17;;
76107;SDS011;64834;52.516;10.528;2024-03-17T01:55:11;5.50;;;1.10;;
76107;SDS011;64834;52.516;10.528;2024-03-17T01:57:36;7.00;;;1.10;;
76107;SDS011;64834;52.516;10.528;2024-03-17T02:00:02;8.02;;;1.60;;
76107;SDS011;64834;52.516;10.528;2024-03-17T02:02:29;6.65;;;1.10;;
76107;SDS011;64834;52.516;10.528;2024-03-17T02:04:56;4.82;;;0.93;;
76107;SDS011;64834;52.516;10.528;2024-03-17T02:07:22;6.53;;;1.23;;
76107;SDS011;64834;52.516;10.528;2024-03-17T02:09:47;5.53;;;1.50;;
76107;SDS011;64834;52.516;10.528;2024-03-17T02:12:12;6.10;;;1.10;;
76107;SDS011;64834;52.516;10.528;2024-03-17T02:14:38;8.35;;;1.00;;
76107;SDS011;64834;52.516;10.528;2024-03-17T02:17:03;8.00;;;1.77;;
76107;SDS011;64834;52.516;10.528;2024-03-17T02:19:29;6.22;;;1.35;;
76107;SDS011;64834;52.516;10.528;2024-03-17T02:21:54;8.20;;;1.42;;
76107;SDS011;64834;52.516;10.528;2024-03-17T02:24:20;4.13;;;1.13;;
76107;SDS011;64834;52.516;10.528;2024-03-17T02:26:45;6.15;;;1.77;;
76107;SDS011;64834;52.516;10.528;2024-03-17T02:29:10;8.35;;;1.88;;
76107;SDS011;64834;52.516;10.528;2024-03-17T02:31:39;7.70;;;1.13;;
76107;SDS011;64834;52.516;10.528;2024-03-17T02:34:04;3.47;;;1.20;;
76107;SDS011;64834;52.516;10.528;2024-03-17T02:36:30;5.80;;;1.77;;
76107;SDS011;64834;52.516;10.528;2024-03-17T02:38:55;5.05;;;1.33;;
76107;SDS011;64834;52.516;10.528;2024-03-17T02:41:43;6.97;;;1.33;;
76107;SDS011;64834;52.516;10.528;2024-03-17T02:44:09;7.07;;;1.30;;
76107;SDS011;64834;52.516;10.528;2024-03-17T02:46:36;5.00;;;1.25;;
76107;SDS011;64834;52.516;10.528;2024-03-17T02:49:01;5.75;;;1.95;;
76107;SDS011;64834;52.516;10.528;2024-03-17T02:51:27;8.27;;;1.40;;
76107;SDS011;64834;52.516;10.528;2024-03-17T02:53:52;5.90;;;1.52;;
76107;SDS011;64834;52.516;10.528;2024-03-17T02:56:18;6.70;;;1.67;;
76107;SDS011;64834;52.516;10.528;2024-03-17T02:58:44;5.15;;;1.75;;
76107;SDS011;64834;52.516;10.528;2024-03-17T03:01:13;6.20;;;1.00;;
76107;SDS011;64834;52.516;10.528;2024-03-17T03:06:07;3.00;;;0.87;;
76107;SDS011;64834;52.516;10.528;2024-03-17T03:08:36;4.55;;;1.25;;
76107;SDS011;64834;52.516;10.528;2024-03-17T03:11:09;4.60;;;1.40;;
76107;SDS011;64834;52.516;10.528;2024-03-17T03:13:38;4.97;;;1.23;;
76107;SDS011;64834;52.516;10.528;2024-03-17T03:16:09;5.35;;;0.90;;
76107;SDS011;64834;52.516;10.528;2024-03-17T03:18:36;8.13;;;1.45;;
76107;SDS011;64834;52.516;10.528;2024-03-17T03:21:03;3.63;;;0.80;;
76107;SDS011;64834;52.516;10.528;2024-03-17T03:23:29;7.32;;;1.35;;
76107;SDS011;64834;52.516;10.528;2024-03-17T03:25:55;4.78;;;1.27;;
76107;SDS011;64834;52.516;10.528;2024-03-17T03:28:24;3.55;;;1.30;;
76107;SDS011;64834;52.516;10.528;2024-03-17T03:30:50;5.72;;;1.50;;
76107;SDS011;64834;52.516;10.528;2024-03-17T03:33:16;9.13;;;1.10;;
76107;SDS011;64834;52.516;10.528;2024-03-17T03:35:43;4.60;;;1.42;;
76107;SDS011;64834;52.516;10.528;2024-03-17T03:38:09;7.55;;;1.50;;
76107;SDS011;64834;52.516;10.528;2024-03-17T03:40:34;5.03;;;1.23;;
76107;SDS011;64834;52.516;10.528;2024-03-17T03:42:59;3.58;;;1.50;;
76107;SDS011;64834;52.516;10.528;2024-03-17T03:45:25;3.80;;;1.13;;
76107;SDS011;64834;52.516;10.528;2024-03-17T03:47:50;4.13;;;1.17;;
76107;SDS011;64834;52.516;10.528;2024-03-17T03:50:17;10.23;;;1.75;;
76107;SDS011;64834;52.516;10.528;2024-03-17T03:52:45;5.07;;;1.60;;
76107;SDS011;64834;52.516;10.528;2024-03-17T03:55:11;5.13;;;1.30;;
76107;SDS011;64834;52.516;10.528;2024-03-17T03:57:43;8.93;;;1.42;;
76107;SDS011;64834;52.516;10.528;2024-03-17T04:00:16;11.20;;;1.50;;
76107;SDS011;64834;52.516;10.528;2024-03-17T04:02:47;4.38;;;1.05;;
76107;SDS011;64834;52.516;10.528;2024-03-17T04:05:18;6.47;;;1.65;;
76107;SDS011;64834;52.516;10.528;2024-03-17T04:07:45;7.13;;;1.30;;
76107;SDS011;64834;52.516;10.528;2024-03-17T04:10:11;6.25;;;1.10;;
76107;SDS011;64834;52.516;10.528;2024-03-17T04:12:37;3.63;;;1.00;;
76107;SDS011;64834;52.516;10.528;2024-03-17T04:15:03;3.63;;;0.90;;
76107;SDS011;64834;52.516;10.528;2024-03-17T04:17:31;6.53;;;1.30;;
76107;SDS011;64834;52.516;10.528;2024-03-17T04:19:56;5.65;;;1.33;;
76107;SDS011;64834;52.516;10.528;2024-03-17T04:22:22;7.97;;;1.50;;
76107;SDS011;64834;52.516;10.528;2024-03-17T04:24:48;6.50;;;1.20;;
76107;SDS011;64834;52.516;10.528;2024-03-17T04:27:24;5.35;;;1.23;;
76107;SDS011;64834;52.516;10.528;2024-03-17T04:29:51;6.45;;;1.20;;
76107;SDS011;64834;52.516;10.528;2024-03-17T04:34:44;8.40;;;1.25;;
76107;SDS011;64834;52.516;10.528;2024-03-17T04:37:09;9.02;;;1.30;;
76107;SDS011;64834;52.516;10.528;2024-03-17T04:39:41;5.70;;;1.70;;
76107;SDS011;64834;52.516;10.528;2024-03-17T04:42:10;4.97;;;1.35;;
76107;SDS011;64834;52.516;10.528;2024-03-17T04:44:36;3.25;;;1.30;;
76107;SDS011;64834;52.516;10.528;2024-03-17T04:47:02;4.57;;;1.63;;
76107;SDS011;64834;52.516;10.528;2024-03-17T04:49:35;5.93;;;1.35;;
76107;SDS011;64834;52.516;10.528;2024-03-17T04:52:05;5.07;;;1.42;;
76107;SDS011;64834;52.516;10.528;2024-03-17T04:54:31;5.25;;;1.50;;
76107;SDS011;64834;52.516;10.528;2024-03-17T04:56:57;8.93;;;1.80;;
76107;SDS011;64834;52.516;10.528;2024-03-17T04:59:22;4.47;;;1.27;;
76107;SDS011;64834;52.516;10.528;2024-03-17T05:01:48;9.60;;;1.63;;
76107;SDS011;64834;52.516;10.528;2024-03-17T05:04:13;4.93;;;1.25;;
76107;SDS011;64834;52.516;10.528;2024-03-17T05:06:39;3.20;;;1.13;;
76107;SDS011;64834;52.516;10.528;2024-03-17T05:09:06;6.18;;;1.73;;
76107;SDS011;64834;52.516;10.528;2024-03-17T05:11:32;5.43;;;1.13;;
76107;SDS011;64834;52.516;10.528;2024-03-17T05:14:00;9.38;;;1.33;;
76107;SDS011;64834;52.516;10.528;2024-03-17T05:16:25;6.22;;;1.45;;
76107;SDS011;64834;52.516;10.528;2024-03-17T05:18:54;7.28;;;1.42;;
76107;SDS011;64834;52.516;10.528;2024-03-17T05:21:19;4.88;;;1.42;;
76107;SDS011;64834;52.516;10.528;2024-03-17T05:23:45;6.78;;;1.98;;
76107;SDS011;64834;52.516;10.528;2024-03-17T05:26:10;7.35;;;1.67;;
76107;SDS011;64834;52.516;10.528;2024-03-17T05:28:35;9.82;;;1.90;;
76107;SDS011;64834;52.516;10.528;2024-03-17T05:31:01;7.82;;;1.98;;
76107;SDS011;64834;52.516;10.528;2024-03-17T05:33:26;4.22;;;1.40;;
76107;SDS011;64834;52.516;10.528;2024-03-17T05:35:52;6.95;;;2.17;;
76107;SDS011;64834;52.516;10.528;2024-03-17T05:38:19;7.25;;;1.58;;
76107;SDS011;64834;52.516;10.528;2024-03-17T05:40:56;7.10;;;1.60;;
76107;SDS011;64834;52.516;10.528;2024-03-17T05:43:23;5.68;;;1.30;;
76107;SDS011;64834;52.516;10.528;2024-03-17T05:45:52;4.15;;;1.15;;
76107;SDS011;64834;52.516;10.528;2024-03-17T05:48:19;6.18;;;1.40;;
76107;SDS011;64834;52.516;10.528;2024-03-17T05:50:45;7.43;;;1.40;;
76107;SDS011;64834;52.516;10.528;2024-03-17T05:53:10;3.75;;;1.38;;
76107;SDS011;64834;52.516;10.528;2024-03-17T05:55:36;4.85;;;1.15;;
76107;SDS011;64834;52.516;10.528;2024-03-17T05:58:02;5.72;;;1.23;;
76107;SDS011;64834;52.516;10.528;2024-03-17T06:00:28;5.22;;;1.33;;
76107;SDS011;64834;52.516;10.528;2024-03-17T06:02:55;3.08;;;1.10;;
76107;SDS011;64834;52.516;10.528;2024-03-17T06:05:21;5.78;;;1.73;;
76107;SDS011;64834;52.516;10.528;2024-03-17T06:07:46;10.02;;;1.60;;
76107;SDS011;64834;52.516;10.528;2024-03-17T06:10:12;6.25;;;1.48;;
76107;SDS011;64834;52.516;10.528;2024-03-17T06:12:37;6.68;;;1.52;;
76107;SDS011;64834;52.516;10.528;2024-03-17T06:15:03;10.23;;;1.60;;
76107;SDS011;64834;52.516;10.528;2024-03-17T06:17:28;7.72;;;1.75;;
76107;SDS011;64834;52.516;10.528;2024-03-17T06:19:54;6.38;;;1.65;;
76107;SDS011;64834;52.516;10.528;2024-03-17T06:22:22;4.80;;;1.70;;
76107;SDS011;64834;52.516;10.528;2024-03-17T06:24:48;9.35;;;2.05;;
76107;SDS011;64834;52.516;10.528;2024-03-17T06:27:14;6.18;;;1.30;;
76107;SDS011;64834;52.516;10.528;2024-03-17T06:29:39;9.98;;;2.20;;
76107;SDS011;64834;52.516;10.528;2024-03-17T06:32:05;10.82;;;2.10;;
76107;SDS011;64834;52.516;10.528;2024-03-17T06:34:30;6.97;;;1.65;;
76107;SDS011;64834;52.516;10.528;2024-03-17T06:36:56;7.32;;;2.20;;
76107;SDS011;64834;52.516;10.528;2024-03-17T06:39:21;13.07;;;1.90;;
76107;SDS011;64834;52.516;10.528;2024-03-17T06:41:47;6.57;;;2.30;;
76107;SDS011;64834;52.516;10.528;2024-03-17T06:44:12;10.65;;;2.15;;
76107;SDS011;64834;52.516;10.528;2024-03-17T06:46:37;9.40;;;2.17;;
76107;SDS011;64834;52.516;10.528;2024-03-17T06:49:03;7.32;;;1.83;;
76107;SDS011;64834;52.516;10.528;2024-03-17T06:51:28;5.07;;;1.85;;
76107;SDS011;64834;52.516;10.528;2024-03-17T06:53:53;9.30;;;2.58;;
76107;SDS011;64834;52.516;10.528;2024-03-17T06:56:19;7.90;;;2.55;;
76107;SDS011;64834;52.516;10.528;2024-03-17T06:58:44;6.35;;;2.05;;
76107;SDS011;64834;52.516;10.528;2024-03-17T07:01:09;7.53;;;2.08;;
76107;SDS011;64834;52.516;10.528;2024-03-17T07:03:38;15.52;;;3.35;;
76107;SDS011;64834;52.516;10.528;2024-03-17T07:06:03;14.75;;;2.70;;
76107;SDS011;64834;52.516;10.528;2024-03-17T07:08:30;9.45;;;2.75;;
76107;SDS011;64834;52.516;10.528;2024-03-17T07:13:40;7.35;;;2.42;;
76107;SDS011;64834;52.516;10.528;2024-03-17T07:16:07;8.90;;;3.13;;
76107;SDS011;64834;52.516;10.528;2024-03-17T07:18:33;7.90;;;2.83;;
76107;SDS011;64834;52.516;10.528;2024-03-17T07:20:59;12.27;;;3.30;;
76107;SDS011;64834;52.516;10.528;2024-03-17T07:23:27;7.97;;;2.30;;
76107;SDS011;64834;52.516;10.528;2024-03-17T07:25:56;11.10;;;3.42;;
76107;SDS011;64834;52.516;10.528;2024-03-17T07:28:24;10.85;;;3.45;;
76107;SDS011;64834;52.516;10.528;2024-03-17T07:30:50;13.23;;;2.97;;
76107;SDS011;64834;52.516;10.528;2024-03-17T07:33:17;11.93;;;3.25;;
76107;SDS011;64834;52.516;10.528;2024-03-17T07:38:13;10.23;;;3.30;;
76107;SDS011;64834;52.516;10.528;2024-03-17T07:40:39;9.80;;;3.33;;
76107;SDS011;64834;52.516;10.528;2024-03-17T07:43:04;10.30;;;3.30;;
76107;SDS011;64834;52.516;10.528;2024-03-17T07:45:30;11.55;;;3.20;;
76107;SDS011;64834;52.516;10.528;2024-03-17T07:47:55;8.80;;;3.33;;
76107;SDS011;64834;52.516;10.528;2024-03-17T07:50:20;12.88;;;4.13;;
76107;SDS011;64834;52.516;10.528;2024-03-17T07:52:46;10.07;;;3.60;;
76107;SDS011;64834;52.516;10.528;2024-03-17T07:55:11;11.25;;;3.97;;
76107;SDS011;64834;52.516;10.528;2024-03-17T07:57:38;10.27;;;3.63;;
76107;SDS011;64834;52.516;10.528;2024-03-17T08:00:03;10.55;;;3.90;;
76107;SDS011;64834;52.516;10.528;2024-03-17T08:02:29;11.10;;;3.30;;
76107;SDS011;64834;52.516;10.528;2024-03-17T08:04:55;13.38;;;3.58;;
76107;SDS011;64834;52.516;10.528;2024-03-17T08:07:20;9.25;;;2.90;;
76107;SDS011;64834;52.516;10.528;2024-03-17T08:09:45;7.45;;;3.25;;
76107;SDS011;64834;52.516;10.528;2024-03-17T08:12:11;12.38;;;3.40;;
76107;SDS011;64834;52.516;10.528;2024-03-17T08:14:36;14.32;;;3.33;;
76107;SDS011;64834;52.516;10.528;2024-03-17T08:17:02;11.85;;;3.58;;
76107;SDS011;64834;52.516;10.528;2024-03-17T08:19:27;13.55;;;3.88;;
76107;SDS011;64834;52.516;10.528;2024-03-17T08:21:53;17.63;;;3.00;;
76107;SDS011;64834;52.516;10.528;2024-03-17T08:24:18;8.63;;;3.00;;
76107;SDS011;64834;52.516;10.528;2024-03-17T08:26:44;10.98;;;2.72;;
76107;SDS011;64834;52.516;10.528;2024-03-17T08:29:10;12.05;;;2.97;;
76107;SDS011;64834;52.516;10.528;2024-03-17T08:31:36;7.25;;;2.08;;
76107;SDS011;64834;52.516;10.528;2024-03-17T08:34:02;10.20;;;2.72;;
76107;SDS011;64834;52.516;10.528;2024-03-17T08:36:27;10.25;;;3.03;;
76107;SDS011;64834;52.516;10.528;2024-03-17T08:38:53;10.63;;;3.25;;
76107;SDS011;64834;52.516;10.528;2024-03-17T08:41:20;9.15;;;2.85;;
76107;SDS011;64834;52.516;10.528;2024-03-17T08:43:45;10.95;;;3.03;;
76107;SDS011;64834;52.516;10.528;2024-03-17T08:46:11;8.93;;;2.92;;
76107;SDS011;64834;52.516;10.528;2024-03-17T08:48:39;12.80;;;2.85;;
76107;SDS011;64834;52.516;10.528;2024-03-17T08:51:06;10.35;;;2.10;;
76107;SDS011;64834;52.516;10.528;2024-03-17T08:53:32;15.15;;;2.42;;
76107;SDS011;64834;52.516;10.528;2024-03-17T08:55:58;7.75;;;1.80;;
76107;SDS011;64834;52.516;10.528;2024-03-17T08:58:24;11.45;;;1.52;;
76107;SDS011;64834;52.516;10.528;2024-03-17T09:00:50;10.68;;;1.40;;
76107;SDS011;64834;52.516;10.528;2024-03-17T09:03:17;10.32;;;1.55;;
76107;SDS011;64834;52.516;10.528;2024-03-17T09:05:43;12.80;;;2.25;;
76107;SDS011;64834;52.516;10.528;2024-03-17T09:08:31;7.90;;;1.08;;
76107;SDS011;64834;52.516;10.528;2024-03-17T09:13:24;5.88;;;0.93;;
76107;SDS011;64834;52.516;10.528;2024-03-17T09:15:58;6.57;;;1.33;;
76107;SDS011;64834;52.516;10.528;2024-03-17T09:18:25;10.00;;;1.25;;
76107;SDS011;64834;52.516;10.528;2024-03-17T09:23:23;6.88;;;1.38;;
76107;SDS011;64834;52.516;10.528;2024-03-17T09:25:56;7.07;;;1.10;;
76107;SDS011;64834;52.516;10.528;2024-03-17T09:28:29;9.07;;;1.38;;
76107;SDS011;64834;52.516;10.528;2024-03-17T09:30:55;7.70;;;1.67;;
76107;SDS011;64834;52.516;10.528;2024-03-17T09:33:22;4.57;;;1.05;;
76107;SDS011;64834;52.516;10.528;2024-03-17T09:38:29;6.32;;;0.88;;
76107;SDS011;64834;52.516;10.528;2024-03-17T09:40:55;5.47;;;1.08;;
76107;SDS011;64834;52.516;10.528;2024-03-17T09:43:28;4.82;;;0.80;;
76107;SDS011;64834;52.516;10.528;2024-03-17T09:45:54;6.18;;;1.10;;
76107;SDS011;64834;52.516;10.528;2024-03-17T09:48:22;8.98;;;1.52;;
76107;SDS011;64834;52.516;10.528;2024-03-17T09:50:52;5.80;;;0.90;;
76107;SDS011;64834;52.516;10.528;2024-03-17T09:53:25;12.82;;;1.42;;
76107;SDS011;64834;52.516;10.528;2024-03-17T09:55:52;5.18;;;1.10;;
76107;SDS011;64834;52.516;10.528;2024-03-17T09:58:21;6.00;;;0.80;;
76107;SDS011;64834;52.516;10.528;2024-03-17T10:00:47;7.60;;;0.95;;
76107;SDS011;64834;52.516;10.528;2024-03-17T10:03:18;7.57;;;1.30;;
76107;SDS011;64834;52.516;10.528;2024-03-17T10:06:15;5.18;;;0.65;;
76107;SDS011;64834;52.516;10.528;2024-03-17T10:08:45;4.93;;;1.13;;
76107;SDS011;64834;52.516;10.528;2024-03-17T10:11:12;5.43;;;0.70;;
76107;SDS011;64834;52.516;10.528;2024-03-17T10:13:40;4.18;;;0.98;;
76107;SDS011;64834;52.516;10.528;2024-03-17T10:16:07;5.22;;;0.63;;
76107;SDS011;64834;52.516;10.528;2024-03-17T10:18:46;5.82;;;0.82;;
76107;SDS011;64834;52.516;10.528;2024-03-17T10:21:25;6.50;;;0.80;;
76107;SDS011;64834;52.516;10.528;2024-03-17T10:24:12;4.72;;;1.00;;
76107;SDS011;64834;52.516;10.528;2024-03-17T10:26:52;5.28;;;0.70;;
76107;SDS011;64834;52.516;10.528;2024-03-17T10:29:28;2.90;;;0.80;;
76107;SDS011;64834;52.516;10.528;2024-03-17T10:32:11;8.98;;;0.88;;
76107;SDS011;64834;52.516;10.528;2024-03-17T10:34:38;5.70;;;0.95;;
76107;SDS011;64834;52.516;10.528;2024-03-17T10:39:35;5.28;;;1.02;;
76107;SDS011;64834;52.516;10.528;2024-03-17T10:42:00;7.82;;;1.10;;
76107;SDS011;64834;52.516;10.528;2024-03-17T10:44:27;6.85;;;0.90;;
76107;SDS011;64834;52.516;10.528;2024-03-17T10:46:54;8.07;;;0.90;;
76107;SDS011;64834;52.516;10.528;2024-03-17T10:51:51;7.35;;;0.98;;
76107;SDS011;64834;52.516;10.528;2024-03-17T10:54:23;5.05;;;1.05;;
76107;SDS011;64834;52.516;10.528;2024-03-17T10:56:57;9.63;;;1.10;;
76107;SDS011;64834;52.516;10.528;2024-03-17T10:59:47;7.68;;;1.05;;
76107;SDS011;64834;52.516;10.528;2024-03-17T11:02:26;9.55;;;1.13;;
76107;SDS011;64834;52.516;10.528;2024-03-17T11:04:59;3.55;;;0.70;;
76107;SDS011;64834;52.516;10.528;2024-03-17T11:07:25;7.63;;;0.98;;
76107;SDS011;64834;52.516;10.528;2024-03-17T11:09:52;5.63;;;0.82;;
76107;SDS011;64834;52.516;10.528;2024-03-17T11:15:43;5.97;;;1.40;;
76107;SDS011;64834;52.516;10.528;2024-03-17T11:20:33;6.35;;;0.90;;
76107;SDS011;64834;52.516;10.528;2024-03-17T11:22:59;4.57;;;1.27;;
76107;SDS011;64834;52.516;10.528;2024-03-17T11:27:55;5.53;;;0.90;;
76107;SDS011;64834;52.516;10.528;2024-03-17T11:46:43;4.18;;;0.70;;
76107;SDS011;64834;52.516;10.528;2024-03-17T11:52:08;5.88;;;0.93;;
76107;SDS011;64834;52.516;10.528;2024-03-17T11:54:42;4.85;;;0.85;;
76107;SDS011;64834;52.516;10.528;2024-03-17T11:57:13;5.30;;;0.82;;
76107;SDS011;64834;52.516;10.528;2024-03-17T11:59:41;3.67;;;0.98;;
76107;SDS011;64834;52.516;10.528;2024-03-17T12:02:20;4.28;;;0.90;;
76107;SDS011;64834;52.516;10.528;2024-03-17T12:04:51;9.65;;;1.25;;
76107;SDS011;64834;52.516;10.528;2024-03-17T12:07:18;6.75;;;1.17;;
76107;SDS011;64834;52.516;10.528;2024-03-17T12:09:46;2.83;;;0.60;;
76107;SDS011;64834;52.516;10.528;2024-03-17T12:12:22;3.38;;;0.88;;
76107;SDS011;64834;52.516;10.528;2024-03-17T12:14:49;4.40;;;1.10;;
76107;SDS011;64834;52.516;10.528;2024-03-17T12:17:22;4.68;;;1.00;;
76107;SDS011;64834;52.516;10.528;2024-03-17T12:19:49;5.97;;;0.73;;
76107;SDS011;64834;52.516;10.528;2024-03-17T12:22:22;3.65;;;0.90;;
76107;SDS011;64834;52.516;10.528;2024-03-17T12:24:53;4.65;;;1.00;;
76107;SDS011;64834;52.516;10.528;2024-03-17T12:27:20;3.95;;;1.00;;
76107;SDS011;64834;52.516;10.528;2024-03-17T12:29:48;4.30;;;0.77;;
76107;SDS011;64834;52.516;10.528;2024-03-17T12:32:15;4.00;;;0.90;;
76107;SDS011;64834;52.516;10.528;2024-03-17T12:34:48;3.13;;;0.80;;
76107;SDS011;64834;52.516;10.528;2024-03-17T12:37:22;5.95;;;0.90;;
76107;SDS011;64834;52.516;10.528;2024-03-17T12:39:59;7.03;;;0.80;;
76107;SDS011;64834;52.516;10.528;2024-03-17T12:42:25;5.28;;;0.82;;
76107;SDS011;64834;52.516;10.528;2024-03-17T12:44:52;7.63;;;0.77;;
76107;SDS011;64834;52.516;10.528;2024-03-17T12:47:20;5.10;;;0.80;;
76107;SDS011;64834;52.516;10.528;2024-03-17T12:49:47;5.55;;;1.00;;
76107;SDS011;64834;52.516;10.528;2024-03-17T12:52:23;4.07;;;0.98;;
76107;SDS011;64834;52.516;10.528;2024-03-17T12:55:15;5.25;;;0.82;;
76107;SDS011;64834;52.516;10.528;2024-03-17T13:01:07;5.80;;;1.20;;
76107;SDS011;64834;52.516;10.528;2024-03-17T13:05:59;4.85;;;0.90;;
76107;SDS011;64834;52.516;10.528;2024-03-17T13:08:29;6.80;;;1.10;;
76107;SDS011;64834;52.516;10.528;2024-03-17T13:10:56;5.70;;;0.95;;
76107;SDS011;64834;52.516;10.528;2024-03-17T13:13:22;5.78;;;0.90;;
76107;SDS011;64834;52.516;10.528;2024-03-17T13:15:47;3.83;;;0.85;;
76107;SDS011;64834;52.516;10.528;2024-03-17T13:18:17;5.05;;;1.20;;
76107;SDS011;64834;52.516;10.528;2024-03-17T13:20:44;2.30;;;0.77;;
76107;SDS011;64834;52.516;10.528;2024-03-17T13:23:10;5.95;;;1.00;;
76107;SDS011;64834;52.516;10.528;2024-03-17T13:25:36;6.00;;;0.95;;
76107;SDS011;64834;52.516;10.528;2024-03-17T13:28:05;3.38;;;0.70;;
76107;SDS011;64834;52.516;10.528;2024-03-17T13:30:32;4.40;;;0.90;;
76107;SDS011;64834;52.516;10.528;2024-03-17T13:33:01;3.95;;;0.63;;
76107;SDS011;64834;52.516;10.528;2024-03-17T13:35:33;2.45;;;0.70;;
76107;SDS011;64834;52.516;10.528;2024-03-17T13:38:00;3.80;;;0.90;;
76107;SDS011;64834;52.516;10.528;2024-03-17T13:40:27;5.30;;;0.80;;
76107;SDS011;64834;52.516;10.528;2024-03-17T13:42:56;10.00;;;0.80;;
76107;SDS011;64834;52.516;10.528;2024-03-17T13:45:23;4.70;;;0.70;;
76107;SDS011;64834;52.516;10.528;2024-03-17T13:50:26;1.48;;;0.50;;
76107;SDS011;64834;52.516;10.528;2024-03-17T13:52:52;5.38;;;1.02;;
76107;SDS011;64834;52.516;10.528;2024-03-17T13:55:18;5.55;;;0.90;;
76107;SDS011;64834;52.516;10.528;2024-03-17T13:57:46;7.45;;;1.73;;
76107;SDS011;64834;52.516;10.528;2024-03-17T14:00:25;3.97;;;0.77;;
76107;SDS011;64834;52.516;10.528;2024-03-17T14:02:52;3.80;;;0.70;;
76107;SDS011;64834;52.516;10.528;2024-03-17T14:05:21;6.00;;;1.05;;
76107;SDS011;64834;52.516;10.528;2024-03-17T14:07:47;5.40;;;0.80;;
76107;SDS011;64834;52.516;10.528;2024-03-17T14:10:17;4.80;;;0.88;;
76107;SDS011;64834;52.516;10.528;2024-03-17T14:12:43;4.50;;;0.70;;
76107;SDS011;64834;52.516;10.528;2024-03-17T14:15:10;3.72;;;0.88;;
76107;SDS011;64834;52.516;10.528;2024-03-17T14:17:40;5.38;;;1.20;;
76107;SDS011;64834;52.516;10.528;2024-03-17T14:20:07;5.65;;;0.90;;
76107;SDS011;64834;52.516;10.528;2024-03-17T14:22:36;4.43;;;0.90;;
76107;SDS011;64834;52.516;10.528;2024-03-17T14:25:02;4.57;;;1.13;;
76107;SDS011;64834;52.516;10.528;2024-03-17T14:27:31;4.68;;;0.90;;
76107;SDS011;64834;52.516;10.528;2024-03-17T14:29:56;5.57;;;1.13;;
76107;SDS011;64834;52.516;10.528;2024-03-17T14:32:22;2.75;;;0.80;;
76107;SDS011;64834;52.516;10.528;2024-03-17T14:34:47;2.63;;;0.70;;
76107;SDS011;64834;52.516;10.528;2024-03-17T14:37:13;4.18;;;1.10;;
76107;SDS011;64834;52.516;10.528;2024-03-17T14:39:39;3.75;;;1.40;;
76107;SDS011;64834;52.516;10.528;2024-03-17T14:42:05;6.60;;;1.10;;
76107;SDS011;64834;52.516;10.528;2024-03-17T14:44:30;3.13;;;0.90;;
76107;SDS011;64834;52.516;10.528;2024-03-17T14:46:56;5.18;;;0.93;;
76107;SDS011;64834;52.516;10.528;2024-03-17T14:49:21;5.18;;;0.88;;
76107;SDS011;64834;52.516;10.528;2024-03-17T14:51:47;7.32;;;1.00;;
76107;SDS011;64834;52.516;10.528;2024-03-17T14:54:12;2.15;;;0.60;;
76107;SDS011;64834;52.516;10.528;2024-03-17T14:56:38;3.90;;;0.88;;
76107;SDS011;64834;52.516;10.528;2024-03-17T14:59:05;5.72;;;1.00;;
76107;SDS011;64834;52.516;10.528;2024-03-17T15:01:30;6.55;;;0.73;;
76107;SDS011;64834;52.516;10.528;2024-03-17T15:03:56;4.65;;;0.80;;
76107;SDS011;64834;52.516;10.528;2024-03-17T15:06:21;5.72;;;0.90;;
76107;SDS011;64834;52.516;10.528;2024-03-17T15:08:47;7.15;;;0.77;;
76107;SDS011;64834;52.516;10.528;2024-03-17T15:11:13;4.13;;;0.80;;
76107;SDS011;64834;52.516;10.528;2024-03-17T15:13:38;4.90;;;1.10;;
76107;SDS011;64834;52.516;10.528;2024-03-17T15:16:04;2.95;;;0.93;;
76107;SDS011;64834;52.516;10.528;2024-03-17T15:18:31;4.53;;;0.73;;
76107;SDS011;64834;52.516;10.528;2024-03-17T15:23:25;4.05;;;0.70;;
76107;SDS011;64834;52.516;10.528;2024-03-17T15:28:35;5.45;;;0.70;;
76107;SDS011;64834;52.516;10.528;2024-03-17T15:31:04;7.28;;;1.10;;
76107;SDS011;64834;52.516;10.528;2024-03-17T15:33:33;6.13;;;0.98;;
76107;SDS011;64834;52.516;10.528;2024-03-17T15:36:08;3.95;;;0.60;;
76107;SDS011;64834;52.516;10.528;2024-03-17T15:38:34;3.42;;;0.88;;